<?xml version="1.0" encoding="UTF-8" standalone="no" ?>
<gpx xmlns="http://www.topografix.com/GPX/1/1" xmlns:xsi="http://www.w3.org/2001/XMLSchema-instance" xsi:schemaLocation="http://www.topografix.com/GPX/1/1 http://www.topografix.com/GPX/1/1/gpx.xsd" version="1.1" creator="VisuGPX - https://www.visugpx.com">
  <metadata>
    <name>9801771-MERVENT TRAIL 21,5 KM</name>
  </metadata>
  <trk>
    <name><![CDATA[9801771-MERVENT TRAIL 21,5 KM]]></name>
    <trkseg>
      <trkpt lat="46.54382" lon="-0.77494">
        <ele>51</ele>
        <time>2021-05-20T16:43:57Z</time>
      </trkpt>
      <trkpt lat="46.54428" lon="-0.77539">
        <ele>53</ele>
        <time>2021-05-20T16:44:25Z</time>
      </trkpt>
      <trkpt lat="46.54435" lon="-0.77593">
        <ele>51</ele>
        <time>2021-05-20T16:44:44Z</time>
      </trkpt>
      <trkpt lat="46.54435" lon="-0.77728">
        <ele>52</ele>
        <time>2021-05-20T16:45:30Z</time>
      </trkpt>
      <trkpt lat="46.54428" lon="-0.77824">
        <ele>54</ele>
        <time>2021-05-20T16:46:03Z</time>
      </trkpt>
      <trkpt lat="46.54419" lon="-0.77902">
        <ele>53</ele>
        <time>2021-05-20T16:46:31Z</time>
      </trkpt>
      <trkpt lat="46.5441" lon="-0.78024">
        <ele>54</ele>
        <time>2021-05-20T16:47:13Z</time>
      </trkpt>
      <trkpt lat="46.54414" lon="-0.78121">
        <ele>53</ele>
        <time>2021-05-20T16:47:46Z</time>
      </trkpt>
      <trkpt lat="46.54368" lon="-0.78117">
        <ele>48</ele>
        <time>2021-05-20T16:48:09Z</time>
      </trkpt>
      <trkpt lat="46.54327" lon="-0.78114">
        <ele>47</ele>
        <time>2021-05-20T16:48:30Z</time>
      </trkpt>
      <trkpt lat="46.54299" lon="-0.78106">
        <ele>59</ele>
        <time>2021-05-20T16:48:44Z</time>
      </trkpt>
      <trkpt lat="46.54287" lon="-0.78102">
        <ele>64</ele>
        <time>2021-05-20T16:48:50Z</time>
      </trkpt>
      <trkpt lat="46.54287" lon="-0.78076">
        <ele>64</ele>
        <time>2021-05-20T16:48:59Z</time>
      </trkpt>
      <trkpt lat="46.54265" lon="-0.78103">
        <ele>74</ele>
        <time>2021-05-20T16:49:14Z</time>
      </trkpt>
      <trkpt lat="46.54247" lon="-0.78128">
        <ele>81</ele>
        <time>2021-05-20T16:49:26Z</time>
      </trkpt>
      <trkpt lat="46.54231" lon="-0.78137">
        <ele>84</ele>
        <time>2021-05-20T16:49:35Z</time>
      </trkpt>
      <trkpt lat="46.54219" lon="-0.78136">
        <ele>87</ele>
        <time>2021-05-20T16:49:41Z</time>
      </trkpt>
      <trkpt lat="46.54204" lon="-0.78112">
        <ele>91</ele>
        <time>2021-05-20T16:49:52Z</time>
      </trkpt>
      <trkpt lat="46.54192" lon="-0.78095">
        <ele>93</ele>
        <time>2021-05-20T16:50:00Z</time>
      </trkpt>
      <trkpt lat="46.54159" lon="-0.78096">
        <ele>99</ele>
        <time>2021-05-20T16:50:17Z</time>
      </trkpt>
      <trkpt lat="46.54115" lon="-0.78112">
        <ele>101</ele>
        <time>2021-05-20T16:50:39Z</time>
      </trkpt>
      <trkpt lat="46.54083" lon="-0.78125">
        <ele>102</ele>
        <time>2021-05-20T16:50:56Z</time>
      </trkpt>
      <trkpt lat="46.5407" lon="-0.78142">
        <ele>102</ele>
        <time>2021-05-20T16:51:05Z</time>
      </trkpt>
      <trkpt lat="46.541" lon="-0.78247">
        <ele>102</ele>
        <time>2021-05-20T16:51:44Z</time>
      </trkpt>
      <trkpt lat="46.54107" lon="-0.78355">
        <ele>101</ele>
        <time>2021-05-20T16:52:21Z</time>
      </trkpt>
      <trkpt lat="46.54141" lon="-0.78369">
        <ele>101</ele>
        <time>2021-05-20T16:52:39Z</time>
      </trkpt>
      <trkpt lat="46.54156" lon="-0.78319">
        <ele>99</ele>
        <time>2021-05-20T16:52:58Z</time>
      </trkpt>
      <trkpt lat="46.54198" lon="-0.7829">
        <ele>93</ele>
        <time>2021-05-20T16:53:21Z</time>
      </trkpt>
      <trkpt lat="46.54234" lon="-0.78326">
        <ele>89</ele>
        <time>2021-05-20T16:53:43Z</time>
      </trkpt>
      <trkpt lat="46.54267" lon="-0.78346">
        <ele>86</ele>
        <time>2021-05-20T16:54:01Z</time>
      </trkpt>
      <trkpt lat="46.54268" lon="-0.78306">
        <ele>81</ele>
        <time>2021-05-20T16:54:15Z</time>
      </trkpt>
      <trkpt lat="46.54261" lon="-0.78286">
        <ele>81</ele>
        <time>2021-05-20T16:54:22Z</time>
      </trkpt>
      <trkpt lat="46.54275" lon="-0.78252">
        <ele>73</ele>
        <time>2021-05-20T16:54:36Z</time>
      </trkpt>
      <trkpt lat="46.54318" lon="-0.783">
        <ele>68</ele>
        <time>2021-05-20T16:55:03Z</time>
      </trkpt>
      <trkpt lat="46.54355" lon="-0.78342">
        <ele>71</ele>
        <time>2021-05-20T16:55:27Z</time>
      </trkpt>
      <trkpt lat="46.54411" lon="-0.78369">
        <ele>71</ele>
        <time>2021-05-20T16:55:56Z</time>
      </trkpt>
      <trkpt lat="46.54463" lon="-0.78389">
        <ele>73</ele>
        <time>2021-05-20T16:56:23Z</time>
      </trkpt>
      <trkpt lat="46.54521" lon="-0.78394">
        <ele>67</ele>
        <time>2021-05-20T16:56:52Z</time>
      </trkpt>
      <trkpt lat="46.54565" lon="-0.78394">
        <ele>60</ele>
        <time>2021-05-20T16:57:14Z</time>
      </trkpt>
      <trkpt lat="46.54572" lon="-0.78445">
        <ele>64</ele>
        <time>2021-05-20T16:57:32Z</time>
      </trkpt>
      <trkpt lat="46.54548" lon="-0.78508">
        <ele>75</ele>
        <time>2021-05-20T16:57:57Z</time>
      </trkpt>
      <trkpt lat="46.54493" lon="-0.78616">
        <ele>81</ele>
        <time>2021-05-20T16:58:43Z</time>
      </trkpt>
      <trkpt lat="46.54462" lon="-0.7864">
        <ele>85</ele>
        <time>2021-05-20T16:59:01Z</time>
      </trkpt>
      <trkpt lat="46.54414" lon="-0.78632">
        <ele>94</ele>
        <time>2021-05-20T16:59:25Z</time>
      </trkpt>
      <trkpt lat="46.54354" lon="-0.78631">
        <ele>100</ele>
        <time>2021-05-20T16:59:55Z</time>
      </trkpt>
      <trkpt lat="46.54313" lon="-0.78647">
        <ele>101</ele>
        <time>2021-05-20T17:00:16Z</time>
      </trkpt>
      <trkpt lat="46.54268" lon="-0.78678">
        <ele>103</ele>
        <time>2021-05-20T17:00:41Z</time>
      </trkpt>
      <trkpt lat="46.54226" lon="-0.78711">
        <ele>103</ele>
        <time>2021-05-20T17:01:05Z</time>
      </trkpt>
      <trkpt lat="46.54176" lon="-0.78756">
        <ele>105</ele>
        <time>2021-05-20T17:01:34Z</time>
      </trkpt>
      <trkpt lat="46.54161" lon="-0.78657">
        <ele>107</ele>
        <time>2021-05-20T17:02:09Z</time>
      </trkpt>
      <trkpt lat="46.54136" lon="-0.78531">
        <ele>106</ele>
        <time>2021-05-20T17:02:54Z</time>
      </trkpt>
      <trkpt lat="46.54116" lon="-0.784">
        <ele>102</ele>
        <time>2021-05-20T17:03:41Z</time>
      </trkpt>
      <trkpt lat="46.54128" lon="-0.78355">
        <ele>101</ele>
        <time>2021-05-20T17:03:57Z</time>
      </trkpt>
      <trkpt lat="46.54115" lon="-0.78324">
        <ele>101</ele>
        <time>2021-05-20T17:04:10Z</time>
      </trkpt>
      <trkpt lat="46.54108" lon="-0.78266">
        <ele>101</ele>
        <time>2021-05-20T17:04:30Z</time>
      </trkpt>
      <trkpt lat="46.54098" lon="-0.78212">
        <ele>102</ele>
        <time>2021-05-20T17:04:49Z</time>
      </trkpt>
      <trkpt lat="46.54087" lon="-0.78145">
        <ele>103</ele>
        <time>2021-05-20T17:05:13Z</time>
      </trkpt>
      <trkpt lat="46.54094" lon="-0.78123">
        <ele>102</ele>
        <time>2021-05-20T17:05:21Z</time>
      </trkpt>
      <trkpt lat="46.54134" lon="-0.78109">
        <ele>100</ele>
        <time>2021-05-20T17:05:42Z</time>
      </trkpt>
      <trkpt lat="46.54172" lon="-0.78094">
        <ele>98</ele>
        <time>2021-05-20T17:06:01Z</time>
      </trkpt>
      <trkpt lat="46.54215" lon="-0.78114">
        <ele>88</ele>
        <time>2021-05-20T17:06:24Z</time>
      </trkpt>
      <trkpt lat="46.54249" lon="-0.78093">
        <ele>80</ele>
        <time>2021-05-20T17:06:43Z</time>
      </trkpt>
      <trkpt lat="46.54261" lon="-0.78113">
        <ele>75</ele>
        <time>2021-05-20T17:06:52Z</time>
      </trkpt>
      <trkpt lat="46.54277" lon="-0.78084">
        <ele>68</ele>
        <time>2021-05-20T17:07:05Z</time>
      </trkpt>
      <trkpt lat="46.54292" lon="-0.78058">
        <ele>62</ele>
        <time>2021-05-20T17:07:16Z</time>
      </trkpt>
      <trkpt lat="46.54311" lon="-0.78034">
        <ele>55</ele>
        <time>2021-05-20T17:07:29Z</time>
      </trkpt>
      <trkpt lat="46.54316" lon="-0.77978">
        <ele>53</ele>
        <time>2021-05-20T17:07:48Z</time>
      </trkpt>
      <trkpt lat="46.54316" lon="-0.77908">
        <ele>52</ele>
        <time>2021-05-20T17:08:12Z</time>
      </trkpt>
      <trkpt lat="46.54316" lon="-0.77856">
        <ele>51</ele>
        <time>2021-05-20T17:08:30Z</time>
      </trkpt>
      <trkpt lat="46.54317" lon="-0.77806">
        <ele>47</ele>
        <time>2021-05-20T17:08:47Z</time>
      </trkpt>
      <trkpt lat="46.543" lon="-0.77788">
        <ele>49</ele>
        <time>2021-05-20T17:08:58Z</time>
      </trkpt>
      <trkpt lat="46.54279" lon="-0.77776">
        <ele>53</ele>
        <time>2021-05-20T17:09:09Z</time>
      </trkpt>
      <trkpt lat="46.5427" lon="-0.77765">
        <ele>54</ele>
        <time>2021-05-20T17:09:15Z</time>
      </trkpt>
      <trkpt lat="46.54246" lon="-0.7776">
        <ele>58</ele>
        <time>2021-05-20T17:09:27Z</time>
      </trkpt>
      <trkpt lat="46.54224" lon="-0.77761">
        <ele>61</ele>
        <time>2021-05-20T17:09:38Z</time>
      </trkpt>
      <trkpt lat="46.54204" lon="-0.7775">
        <ele>61</ele>
        <time>2021-05-20T17:09:49Z</time>
      </trkpt>
      <trkpt lat="46.54174" lon="-0.77789">
        <ele>70</ele>
        <time>2021-05-20T17:10:09Z</time>
      </trkpt>
      <trkpt lat="46.54159" lon="-0.77805">
        <ele>74</ele>
        <time>2021-05-20T17:10:18Z</time>
      </trkpt>
      <trkpt lat="46.54125" lon="-0.77799">
        <ele>75</ele>
        <time>2021-05-20T17:10:36Z</time>
      </trkpt>
      <trkpt lat="46.54145" lon="-0.77732">
        <ele>64</ele>
        <time>2021-05-20T17:11:01Z</time>
      </trkpt>
      <trkpt lat="46.54144" lon="-0.77648">
        <ele>51</ele>
        <time>2021-05-20T17:11:30Z</time>
      </trkpt>
      <trkpt lat="46.54119" lon="-0.77655">
        <ele>51</ele>
        <time>2021-05-20T17:11:42Z</time>
      </trkpt>
      <trkpt lat="46.54055" lon="-0.77659">
        <ele>49</ele>
        <time>2021-05-20T17:12:14Z</time>
      </trkpt>
      <trkpt lat="46.54014" lon="-0.77687">
        <ele>52</ele>
        <time>2021-05-20T17:12:37Z</time>
      </trkpt>
      <trkpt lat="46.53962" lon="-0.77713">
        <ele>54</ele>
        <time>2021-05-20T17:13:05Z</time>
      </trkpt>
      <trkpt lat="46.53888" lon="-0.7774">
        <ele>52</ele>
        <time>2021-05-20T17:13:43Z</time>
      </trkpt>
      <trkpt lat="46.53819" lon="-0.77759">
        <ele>55</ele>
        <time>2021-05-20T17:14:18Z</time>
      </trkpt>
      <trkpt lat="46.53793" lon="-0.77758">
        <ele>54</ele>
        <time>2021-05-20T17:14:31Z</time>
      </trkpt>
      <trkpt lat="46.53693" lon="-0.77747">
        <ele>53</ele>
        <time>2021-05-20T17:15:21Z</time>
      </trkpt>
      <trkpt lat="46.53667" lon="-0.77745">
        <ele>53</ele>
        <time>2021-05-20T17:15:34Z</time>
      </trkpt>
      <trkpt lat="46.53627" lon="-0.77728">
        <ele>53</ele>
        <time>2021-05-20T17:15:55Z</time>
      </trkpt>
      <trkpt lat="46.53568" lon="-0.77707">
        <ele>54</ele>
        <time>2021-05-20T17:16:25Z</time>
      </trkpt>
      <trkpt lat="46.53529" lon="-0.77694">
        <ele>58</ele>
        <time>2021-05-20T17:16:45Z</time>
      </trkpt>
      <trkpt lat="46.53509" lon="-0.77676">
        <ele>58</ele>
        <time>2021-05-20T17:16:57Z</time>
      </trkpt>
      <trkpt lat="46.5346" lon="-0.77617">
        <ele>63</ele>
        <time>2021-05-20T17:17:29Z</time>
      </trkpt>
      <trkpt lat="46.5338" lon="-0.77466">
        <ele>53</ele>
        <time>2021-05-20T17:18:35Z</time>
      </trkpt>
      <trkpt lat="46.53341" lon="-0.77415">
        <ele>50</ele>
        <time>2021-05-20T17:19:01Z</time>
      </trkpt>
      <trkpt lat="46.53281" lon="-0.77524">
        <ele>63</ele>
        <time>2021-05-20T17:19:49Z</time>
      </trkpt>
      <trkpt lat="46.53259" lon="-0.77546">
        <ele>62</ele>
        <time>2021-05-20T17:20:02Z</time>
      </trkpt>
      <trkpt lat="46.53265" lon="-0.77479">
        <ele>60</ele>
        <time>2021-05-20T17:20:26Z</time>
      </trkpt>
      <trkpt lat="46.53277" lon="-0.77396">
        <ele>55</ele>
        <time>2021-05-20T17:20:55Z</time>
      </trkpt>
      <trkpt lat="46.53263" lon="-0.77385">
        <ele>56</ele>
        <time>2021-05-20T17:21:03Z</time>
      </trkpt>
      <trkpt lat="46.53204" lon="-0.77456">
        <ele>69</ele>
        <time>2021-05-20T17:21:41Z</time>
      </trkpt>
      <trkpt lat="46.53157" lon="-0.77484">
        <ele>77</ele>
        <time>2021-05-20T17:22:07Z</time>
      </trkpt>
      <trkpt lat="46.53134" lon="-0.77499">
        <ele>80</ele>
        <time>2021-05-20T17:22:19Z</time>
      </trkpt>
      <trkpt lat="46.53108" lon="-0.77546">
        <ele>84</ele>
        <time>2021-05-20T17:22:40Z</time>
      </trkpt>
      <trkpt lat="46.53051" lon="-0.77606">
        <ele>90</ele>
        <time>2021-05-20T17:23:15Z</time>
      </trkpt>
      <trkpt lat="46.5301" lon="-0.77685">
        <ele>94</ele>
        <time>2021-05-20T17:23:49Z</time>
      </trkpt>
      <trkpt lat="46.52959" lon="-0.77758">
        <ele>95</ele>
        <time>2021-05-20T17:24:25Z</time>
      </trkpt>
      <trkpt lat="46.52933" lon="-0.77725">
        <ele>95</ele>
        <time>2021-05-20T17:24:42Z</time>
      </trkpt>
      <trkpt lat="46.52903" lon="-0.77573">
        <ele>92</ele>
        <time>2021-05-20T17:25:37Z</time>
      </trkpt>
      <trkpt lat="46.52924" lon="-0.77541">
        <ele>89</ele>
        <time>2021-05-20T17:25:52Z</time>
      </trkpt>
      <trkpt lat="46.52902" lon="-0.77508">
        <ele>89</ele>
        <time>2021-05-20T17:26:08Z</time>
      </trkpt>
      <trkpt lat="46.52891" lon="-0.77466">
        <ele>88</ele>
        <time>2021-05-20T17:26:23Z</time>
      </trkpt>
      <trkpt lat="46.52894" lon="-0.77343">
        <ele>84</ele>
        <time>2021-05-20T17:27:06Z</time>
      </trkpt>
      <trkpt lat="46.52884" lon="-0.77236">
        <ele>78</ele>
        <time>2021-05-20T17:27:43Z</time>
      </trkpt>
      <trkpt lat="46.52875" lon="-0.77187">
        <ele>76</ele>
        <time>2021-05-20T17:28:00Z</time>
      </trkpt>
      <trkpt lat="46.52877" lon="-0.77145">
        <ele>71</ele>
        <time>2021-05-20T17:28:15Z</time>
      </trkpt>
      <trkpt lat="46.52961" lon="-0.77229">
        <ele>62</ele>
        <time>2021-05-20T17:29:06Z</time>
      </trkpt>
      <trkpt lat="46.53011" lon="-0.77267">
        <ele>55</ele>
        <time>2021-05-20T17:29:34Z</time>
      </trkpt>
      <trkpt lat="46.53129" lon="-0.77291">
        <ele>55</ele>
        <time>2021-05-20T17:30:34Z</time>
      </trkpt>
      <trkpt lat="46.53185" lon="-0.77349">
        <ele>62</ele>
        <time>2021-05-20T17:31:08Z</time>
      </trkpt>
      <trkpt lat="46.5325" lon="-0.77378">
        <ele>56</ele>
        <time>2021-05-20T17:31:42Z</time>
      </trkpt>
      <trkpt lat="46.53274" lon="-0.77423">
        <ele>58</ele>
        <time>2021-05-20T17:32:02Z</time>
      </trkpt>
      <trkpt lat="46.53258" lon="-0.77476">
        <ele>60</ele>
        <time>2021-05-20T17:32:22Z</time>
      </trkpt>
      <trkpt lat="46.53255" lon="-0.77508">
        <ele>60</ele>
        <time>2021-05-20T17:32:33Z</time>
      </trkpt>
      <trkpt lat="46.53252" lon="-0.77536">
        <ele>61</ele>
        <time>2021-05-20T17:32:42Z</time>
      </trkpt>
      <trkpt lat="46.53274" lon="-0.77551">
        <ele>64</ele>
        <time>2021-05-20T17:32:55Z</time>
      </trkpt>
      <trkpt lat="46.53303" lon="-0.77461">
        <ele>59</ele>
        <time>2021-05-20T17:33:29Z</time>
      </trkpt>
      <trkpt lat="46.53334" lon="-0.77406">
        <ele>50</ele>
        <time>2021-05-20T17:33:53Z</time>
      </trkpt>
      <trkpt lat="46.53385" lon="-0.7736">
        <ele>52</ele>
        <time>2021-05-20T17:34:23Z</time>
      </trkpt>
      <trkpt lat="46.53349" lon="-0.77308">
        <ele>52</ele>
        <time>2021-05-20T17:34:49Z</time>
      </trkpt>
      <trkpt lat="46.53277" lon="-0.77234">
        <ele>58</ele>
        <time>2021-05-20T17:35:33Z</time>
      </trkpt>
      <trkpt lat="46.53198" lon="-0.77221">
        <ele>55</ele>
        <time>2021-05-20T17:36:13Z</time>
      </trkpt>
      <trkpt lat="46.53078" lon="-0.77208">
        <ele>51</ele>
        <time>2021-05-20T17:37:13Z</time>
      </trkpt>
      <trkpt lat="46.53048" lon="-0.7718">
        <ele>51</ele>
        <time>2021-05-20T17:37:31Z</time>
      </trkpt>
      <trkpt lat="46.53027" lon="-0.77099">
        <ele>51</ele>
        <time>2021-05-20T17:38:01Z</time>
      </trkpt>
      <trkpt lat="46.53024" lon="-0.76974">
        <ele>51</ele>
        <time>2021-05-20T17:38:44Z</time>
      </trkpt>
      <trkpt lat="46.53029" lon="-0.76925">
        <ele>52</ele>
        <time>2021-05-20T17:39:01Z</time>
      </trkpt>
      <trkpt lat="46.53103" lon="-0.76887">
        <ele>72</ele>
        <time>2021-05-20T17:39:40Z</time>
      </trkpt>
      <trkpt lat="46.53117" lon="-0.76839">
        <ele>75</ele>
        <time>2021-05-20T17:39:58Z</time>
      </trkpt>
      <trkpt lat="46.53145" lon="-0.76739">
        <ele>84</ele>
        <time>2021-05-20T17:40:35Z</time>
      </trkpt>
      <trkpt lat="46.53177" lon="-0.76691">
        <ele>85</ele>
        <time>2021-05-20T17:40:58Z</time>
      </trkpt>
      <trkpt lat="46.53103" lon="-0.76663">
        <ele>87</ele>
        <time>2021-05-20T17:41:36Z</time>
      </trkpt>
      <trkpt lat="46.53054" lon="-0.76614">
        <ele>90</ele>
        <time>2021-05-20T17:42:06Z</time>
      </trkpt>
      <trkpt lat="46.52989" lon="-0.76555">
        <ele>90</ele>
        <time>2021-05-20T17:42:44Z</time>
      </trkpt>
      <trkpt lat="46.52964" lon="-0.76577">
        <ele>85</ele>
        <time>2021-05-20T17:42:59Z</time>
      </trkpt>
      <trkpt lat="46.52943" lon="-0.7663">
        <ele>80</ele>
        <time>2021-05-20T17:43:20Z</time>
      </trkpt>
      <trkpt lat="46.5292" lon="-0.76661">
        <ele>77</ele>
        <time>2021-05-20T17:43:36Z</time>
      </trkpt>
      <trkpt lat="46.52867" lon="-0.76679">
        <ele>66</ele>
        <time>2021-05-20T17:44:03Z</time>
      </trkpt>
      <trkpt lat="46.52822" lon="-0.76717">
        <ele>58</ele>
        <time>2021-05-20T17:44:29Z</time>
      </trkpt>
      <trkpt lat="46.52799" lon="-0.76766">
        <ele>54</ele>
        <time>2021-05-20T17:44:49Z</time>
      </trkpt>
      <trkpt lat="46.5276" lon="-0.76799">
        <ele>52</ele>
        <time>2021-05-20T17:45:12Z</time>
      </trkpt>
      <trkpt lat="46.52715" lon="-0.76799">
        <ele>50</ele>
        <time>2021-05-20T17:45:35Z</time>
      </trkpt>
      <trkpt lat="46.52704" lon="-0.76761">
        <ele>49</ele>
        <time>2021-05-20T17:45:49Z</time>
      </trkpt>
      <trkpt lat="46.52711" lon="-0.7672">
        <ele>50</ele>
        <time>2021-05-20T17:46:03Z</time>
      </trkpt>
      <trkpt lat="46.5278" lon="-0.76646">
        <ele>52</ele>
        <time>2021-05-20T17:46:46Z</time>
      </trkpt>
      <trkpt lat="46.52823" lon="-0.76579">
        <ele>49</ele>
        <time>2021-05-20T17:47:18Z</time>
      </trkpt>
      <trkpt lat="46.52885" lon="-0.76475">
        <ele>56</ele>
        <time>2021-05-20T17:48:05Z</time>
      </trkpt>
      <trkpt lat="46.52936" lon="-0.7637">
        <ele>56</ele>
        <time>2021-05-20T17:48:49Z</time>
      </trkpt>
      <trkpt lat="46.52946" lon="-0.7626">
        <ele>54</ele>
        <time>2021-05-20T17:49:28Z</time>
      </trkpt>
      <trkpt lat="46.52915" lon="-0.76156">
        <ele>45</ele>
        <time>2021-05-20T17:50:07Z</time>
      </trkpt>
      <trkpt lat="46.52999" lon="-0.76112">
        <ele>49</ele>
        <time>2021-05-20T17:50:51Z</time>
      </trkpt>
      <trkpt lat="46.53069" lon="-0.761">
        <ele>49</ele>
        <time>2021-05-20T17:51:27Z</time>
      </trkpt>
      <trkpt lat="46.53129" lon="-0.76122">
        <ele>51</ele>
        <time>2021-05-20T17:51:58Z</time>
      </trkpt>
      <trkpt lat="46.53161" lon="-0.76201">
        <ele>60</ele>
        <time>2021-05-20T17:52:29Z</time>
      </trkpt>
      <trkpt lat="46.53182" lon="-0.76252">
        <ele>68</ele>
        <time>2021-05-20T17:52:50Z</time>
      </trkpt>
      <trkpt lat="46.53222" lon="-0.76229">
        <ele>62</ele>
        <time>2021-05-20T17:53:11Z</time>
      </trkpt>
      <trkpt lat="46.53293" lon="-0.76334">
        <ele>81</ele>
        <time>2021-05-20T17:54:02Z</time>
      </trkpt>
      <trkpt lat="46.53381" lon="-0.76421">
        <ele>92</ele>
        <time>2021-05-20T17:54:55Z</time>
      </trkpt>
      <trkpt lat="46.53458" lon="-0.76502">
        <ele>101</ele>
        <time>2021-05-20T17:55:43Z</time>
      </trkpt>
      <trkpt lat="46.53517" lon="-0.76567">
        <ele>106</ele>
        <time>2021-05-20T17:56:20Z</time>
      </trkpt>
      <trkpt lat="46.53562" lon="-0.76477">
        <ele>96</ele>
        <time>2021-05-20T17:56:58Z</time>
      </trkpt>
      <trkpt lat="46.53612" lon="-0.76377">
        <ele>82</ele>
        <time>2021-05-20T17:57:41Z</time>
      </trkpt>
      <trkpt lat="46.53665" lon="-0.76296">
        <ele>73</ele>
        <time>2021-05-20T17:58:19Z</time>
      </trkpt>
      <trkpt lat="46.53646" lon="-0.76236">
        <ele>66</ele>
        <time>2021-05-20T17:58:42Z</time>
      </trkpt>
      <trkpt lat="46.53627" lon="-0.76169">
        <ele>58</ele>
        <time>2021-05-20T17:59:07Z</time>
      </trkpt>
      <trkpt lat="46.53601" lon="-0.76121">
        <ele>51</ele>
        <time>2021-05-20T17:59:28Z</time>
      </trkpt>
      <trkpt lat="46.53586" lon="-0.76108">
        <ele>49</ele>
        <time>2021-05-20T17:59:36Z</time>
      </trkpt>
      <trkpt lat="46.53558" lon="-0.76118">
        <ele>49</ele>
        <time>2021-05-20T17:59:51Z</time>
      </trkpt>
      <trkpt lat="46.53564" lon="-0.76047">
        <ele>49</ele>
        <time>2021-05-20T18:00:16Z</time>
      </trkpt>
      <trkpt lat="46.53538" lon="-0.76049">
        <ele>49</ele>
        <time>2021-05-20T18:00:29Z</time>
      </trkpt>
      <trkpt lat="46.53511" lon="-0.76042">
        <ele>49</ele>
        <time>2021-05-20T18:00:42Z</time>
      </trkpt>
      <trkpt lat="46.53494" lon="-0.76034">
        <ele>49</ele>
        <time>2021-05-20T18:00:51Z</time>
      </trkpt>
      <trkpt lat="46.53477" lon="-0.76011">
        <ele>50</ele>
        <time>2021-05-20T18:01:03Z</time>
      </trkpt>
      <trkpt lat="46.53459" lon="-0.7598">
        <ele>52</ele>
        <time>2021-05-20T18:01:17Z</time>
      </trkpt>
      <trkpt lat="46.53433" lon="-0.75947">
        <ele>55</ele>
        <time>2021-05-20T18:01:34Z</time>
      </trkpt>
      <trkpt lat="46.53406" lon="-0.75935">
        <ele>57</ele>
        <time>2021-05-20T18:01:48Z</time>
      </trkpt>
      <trkpt lat="46.53366" lon="-0.75955">
        <ele>58</ele>
        <time>2021-05-20T18:02:09Z</time>
      </trkpt>
      <trkpt lat="46.53338" lon="-0.75976">
        <ele>57</ele>
        <time>2021-05-20T18:02:25Z</time>
      </trkpt>
      <trkpt lat="46.53313" lon="-0.76">
        <ele>55</ele>
        <time>2021-05-20T18:02:40Z</time>
      </trkpt>
      <trkpt lat="46.53276" lon="-0.76057">
        <ele>53</ele>
        <time>2021-05-20T18:03:07Z</time>
      </trkpt>
      <trkpt lat="46.53252" lon="-0.76088">
        <ele>50</ele>
        <time>2021-05-20T18:03:23Z</time>
      </trkpt>
      <trkpt lat="46.53236" lon="-0.76111">
        <ele>49</ele>
        <time>2021-05-20T18:03:34Z</time>
      </trkpt>
      <trkpt lat="46.53212" lon="-0.76109">
        <ele>49</ele>
        <time>2021-05-20T18:03:46Z</time>
      </trkpt>
      <trkpt lat="46.53197" lon="-0.76075">
        <ele>49</ele>
        <time>2021-05-20T18:04:00Z</time>
      </trkpt>
      <trkpt lat="46.53186" lon="-0.76046">
        <ele>51</ele>
        <time>2021-05-20T18:04:12Z</time>
      </trkpt>
      <trkpt lat="46.53169" lon="-0.76008">
        <ele>54</ele>
        <time>2021-05-20T18:04:27Z</time>
      </trkpt>
      <trkpt lat="46.53154" lon="-0.75996">
        <ele>54</ele>
        <time>2021-05-20T18:04:36Z</time>
      </trkpt>
      <trkpt lat="46.53153" lon="-0.75975">
        <ele>59</ele>
        <time>2021-05-20T18:04:43Z</time>
      </trkpt>
      <trkpt lat="46.53157" lon="-0.75901">
        <ele>74</ele>
        <time>2021-05-20T18:05:09Z</time>
      </trkpt>
      <trkpt lat="46.53165" lon="-0.75831">
        <ele>81</ele>
        <time>2021-05-20T18:05:33Z</time>
      </trkpt>
      <trkpt lat="46.53165" lon="-0.75815">
        <ele>81</ele>
        <time>2021-05-20T18:05:39Z</time>
      </trkpt>
      <trkpt lat="46.5313" lon="-0.75854">
        <ele>73</ele>
        <time>2021-05-20T18:06:01Z</time>
      </trkpt>
      <trkpt lat="46.531" lon="-0.75876">
        <ele>66</ele>
        <time>2021-05-20T18:06:18Z</time>
      </trkpt>
      <trkpt lat="46.53065" lon="-0.75876">
        <ele>61</ele>
        <time>2021-05-20T18:06:35Z</time>
      </trkpt>
      <trkpt lat="46.53024" lon="-0.75892">
        <ele>55</ele>
        <time>2021-05-20T18:06:56Z</time>
      </trkpt>
      <trkpt lat="46.52979" lon="-0.75912">
        <ele>49</ele>
        <time>2021-05-20T18:07:20Z</time>
      </trkpt>
      <trkpt lat="46.52919" lon="-0.75894">
        <ele>41</ele>
        <time>2021-05-20T18:07:51Z</time>
      </trkpt>
      <trkpt lat="46.52926" lon="-0.75831">
        <ele>42</ele>
        <time>2021-05-20T18:08:12Z</time>
      </trkpt>
      <trkpt lat="46.52942" lon="-0.7566">
        <ele>45</ele>
        <time>2021-05-20T18:09:12Z</time>
      </trkpt>
      <trkpt lat="46.52959" lon="-0.7554">
        <ele>49</ele>
        <time>2021-05-20T18:09:54Z</time>
      </trkpt>
      <trkpt lat="46.52968" lon="-0.75408">
        <ele>52</ele>
        <time>2021-05-20T18:10:40Z</time>
      </trkpt>
      <trkpt lat="46.52943" lon="-0.75313">
        <ele>57</ele>
        <time>2021-05-20T18:11:15Z</time>
      </trkpt>
      <trkpt lat="46.52894" lon="-0.75247">
        <ele>60</ele>
        <time>2021-05-20T18:11:48Z</time>
      </trkpt>
      <trkpt lat="46.52834" lon="-0.75209">
        <ele>61</ele>
        <time>2021-05-20T18:12:21Z</time>
      </trkpt>
      <trkpt lat="46.5274" lon="-0.75204">
        <ele>68</ele>
        <time>2021-05-20T18:13:08Z</time>
      </trkpt>
      <trkpt lat="46.5268" lon="-0.75247">
        <ele>66</ele>
        <time>2021-05-20T18:13:42Z</time>
      </trkpt>
      <trkpt lat="46.52659" lon="-0.75306">
        <ele>56</ele>
        <time>2021-05-20T18:14:04Z</time>
      </trkpt>
      <trkpt lat="46.5261" lon="-0.75377">
        <ele>51</ele>
        <time>2021-05-20T18:14:39Z</time>
      </trkpt>
      <trkpt lat="46.5258" lon="-0.75426">
        <ele>49</ele>
        <time>2021-05-20T18:15:02Z</time>
      </trkpt>
      <trkpt lat="46.52552" lon="-0.75444">
        <ele>46</ele>
        <time>2021-05-20T18:15:17Z</time>
      </trkpt>
      <trkpt lat="46.52528" lon="-0.75429">
        <ele>46</ele>
        <time>2021-05-20T18:15:30Z</time>
      </trkpt>
      <trkpt lat="46.52517" lon="-0.75339">
        <ele>46</ele>
        <time>2021-05-20T18:16:01Z</time>
      </trkpt>
      <trkpt lat="46.52575" lon="-0.75332">
        <ele>58</ele>
        <time>2021-05-20T18:16:31Z</time>
      </trkpt>
      <trkpt lat="46.52595" lon="-0.75291">
        <ele>63</ele>
        <time>2021-05-20T18:16:48Z</time>
      </trkpt>
      <trkpt lat="46.52621" lon="-0.7522">
        <ele>73</ele>
        <time>2021-05-20T18:17:16Z</time>
      </trkpt>
      <trkpt lat="46.52684" lon="-0.75151">
        <ele>86</ele>
        <time>2021-05-20T18:17:55Z</time>
      </trkpt>
      <trkpt lat="46.52765" lon="-0.75061">
        <ele>98</ele>
        <time>2021-05-20T18:18:46Z</time>
      </trkpt>
      <trkpt lat="46.52837" lon="-0.75008">
        <ele>99</ele>
        <time>2021-05-20T18:19:26Z</time>
      </trkpt>
      <trkpt lat="46.52929" lon="-0.75019">
        <ele>95</ele>
        <time>2021-05-20T18:20:13Z</time>
      </trkpt>
      <trkpt lat="46.52932" lon="-0.74983">
        <ele>97</ele>
        <time>2021-05-20T18:20:25Z</time>
      </trkpt>
      <trkpt lat="46.52895" lon="-0.74953">
        <ele>98</ele>
        <time>2021-05-20T18:20:46Z</time>
      </trkpt>
      <trkpt lat="46.52865" lon="-0.74937">
        <ele>97</ele>
        <time>2021-05-20T18:21:02Z</time>
      </trkpt>
      <trkpt lat="46.52857" lon="-0.74858">
        <ele>92</ele>
        <time>2021-05-20T18:21:30Z</time>
      </trkpt>
      <trkpt lat="46.52839" lon="-0.74779">
        <ele>84</ele>
        <time>2021-05-20T18:21:58Z</time>
      </trkpt>
      <trkpt lat="46.52822" lon="-0.74713">
        <ele>76</ele>
        <time>2021-05-20T18:22:23Z</time>
      </trkpt>
      <trkpt lat="46.52874" lon="-0.74657">
        <ele>77</ele>
        <time>2021-05-20T18:22:55Z</time>
      </trkpt>
      <trkpt lat="46.5288" lon="-0.74619">
        <ele>73</ele>
        <time>2021-05-20T18:23:09Z</time>
      </trkpt>
      <trkpt lat="46.52914" lon="-0.7454">
        <ele>70</ele>
        <time>2021-05-20T18:23:41Z</time>
      </trkpt>
      <trkpt lat="46.52937" lon="-0.74468">
        <ele>72</ele>
        <time>2021-05-20T18:24:08Z</time>
      </trkpt>
      <trkpt lat="46.52857" lon="-0.74573">
        <ele>66</ele>
        <time>2021-05-20T18:25:02Z</time>
      </trkpt>
      <trkpt lat="46.52801" lon="-0.74647">
        <ele>67</ele>
        <time>2021-05-20T18:25:40Z</time>
      </trkpt>
      <trkpt lat="46.52681" lon="-0.74738">
        <ele>61</ele>
        <time>2021-05-20T18:26:48Z</time>
      </trkpt>
      <trkpt lat="46.52545" lon="-0.74846">
        <ele>55</ele>
        <time>2021-05-20T18:28:05Z</time>
      </trkpt>
      <trkpt lat="46.52475" lon="-0.74922">
        <ele>53</ele>
        <time>2021-05-20T18:28:49Z</time>
      </trkpt>
      <trkpt lat="46.52336" lon="-0.75016">
        <ele>40</ele>
        <time>2021-05-20T18:30:05Z</time>
      </trkpt>
      <trkpt lat="46.52287" lon="-0.75066">
        <ele>40</ele>
        <time>2021-05-20T18:30:35Z</time>
      </trkpt>
      <trkpt lat="46.52287" lon="-0.75106">
        <ele>42</ele>
        <time>2021-05-20T18:30:49Z</time>
      </trkpt>
      <trkpt lat="46.52287" lon="-0.75258">
        <ele>57</ele>
        <time>2021-05-20T18:31:42Z</time>
      </trkpt>
      <trkpt lat="46.52258" lon="-0.75298">
        <ele>65</ele>
        <time>2021-05-20T18:32:02Z</time>
      </trkpt>
      <trkpt lat="46.52243" lon="-0.75312">
        <ele>67</ele>
        <time>2021-05-20T18:32:10Z</time>
      </trkpt>
      <trkpt lat="46.52238" lon="-0.75371">
        <ele>73</ele>
        <time>2021-05-20T18:32:31Z</time>
      </trkpt>
      <trkpt lat="46.52251" lon="-0.75418">
        <ele>79</ele>
        <time>2021-05-20T18:32:48Z</time>
      </trkpt>
      <trkpt lat="46.52261" lon="-0.75461">
        <ele>81</ele>
        <time>2021-05-20T18:33:04Z</time>
      </trkpt>
      <trkpt lat="46.52261" lon="-0.75509">
        <ele>84</ele>
        <time>2021-05-20T18:33:21Z</time>
      </trkpt>
      <trkpt lat="46.52288" lon="-0.75566">
        <ele>84</ele>
        <time>2021-05-20T18:33:44Z</time>
      </trkpt>
      <trkpt lat="46.52309" lon="-0.75629">
        <ele>86</ele>
        <time>2021-05-20T18:34:08Z</time>
      </trkpt>
      <trkpt lat="46.52312" lon="-0.7566">
        <ele>87</ele>
        <time>2021-05-20T18:34:19Z</time>
      </trkpt>
      <trkpt lat="46.52327" lon="-0.75662">
        <ele>87</ele>
        <time>2021-05-20T18:34:27Z</time>
      </trkpt>
      <trkpt lat="46.52339" lon="-0.75678">
        <ele>88</ele>
        <time>2021-05-20T18:34:35Z</time>
      </trkpt>
      <trkpt lat="46.52368" lon="-0.75739">
        <ele>89</ele>
        <time>2021-05-20T18:35:00Z</time>
      </trkpt>
      <trkpt lat="46.52404" lon="-0.75764">
        <ele>90</ele>
        <time>2021-05-20T18:35:20Z</time>
      </trkpt>
      <trkpt lat="46.52448" lon="-0.75761">
        <ele>83</ele>
        <time>2021-05-20T18:35:43Z</time>
      </trkpt>
      <trkpt lat="46.52469" lon="-0.75759">
        <ele>78</ele>
        <time>2021-05-20T18:35:53Z</time>
      </trkpt>
      <trkpt lat="46.52467" lon="-0.75764">
        <ele>79</ele>
        <time>2021-05-20T18:35:55Z</time>
      </trkpt>
      <trkpt lat="46.52473" lon="-0.75776">
        <ele>79</ele>
        <time>2021-05-20T18:36:00Z</time>
      </trkpt>
      <trkpt lat="46.52475" lon="-0.75801">
        <ele>83</ele>
        <time>2021-05-20T18:36:09Z</time>
      </trkpt>
      <trkpt lat="46.52478" lon="-0.75809">
        <ele>83</ele>
        <time>2021-05-20T18:36:12Z</time>
      </trkpt>
      <trkpt lat="46.5248" lon="-0.75849">
        <ele>88</ele>
        <time>2021-05-20T18:36:26Z</time>
      </trkpt>
      <trkpt lat="46.5252" lon="-0.75938">
        <ele>91</ele>
        <time>2021-05-20T18:37:02Z</time>
      </trkpt>
      <trkpt lat="46.52591" lon="-0.75914">
        <ele>90</ele>
        <time>2021-05-20T18:37:39Z</time>
      </trkpt>
      <trkpt lat="46.5259" lon="-0.76016">
        <ele>89</ele>
        <time>2021-05-20T18:38:14Z</time>
      </trkpt>
      <trkpt lat="46.52612" lon="-0.76013">
        <ele>88</ele>
        <time>2021-05-20T18:38:25Z</time>
      </trkpt>
      <trkpt lat="46.52647" lon="-0.76052">
        <ele>85</ele>
        <time>2021-05-20T18:38:47Z</time>
      </trkpt>
      <trkpt lat="46.52729" lon="-0.76029">
        <ele>72</ele>
        <time>2021-05-20T18:39:29Z</time>
      </trkpt>
      <trkpt lat="46.52753" lon="-0.76121">
        <ele>68</ele>
        <time>2021-05-20T18:40:03Z</time>
      </trkpt>
      <trkpt lat="46.528" lon="-0.76213">
        <ele>55</ele>
        <time>2021-05-20T18:40:42Z</time>
      </trkpt>
      <trkpt lat="46.5283" lon="-0.76285">
        <ele>48</ele>
        <time>2021-05-20T18:41:11Z</time>
      </trkpt>
      <trkpt lat="46.52832" lon="-0.76361">
        <ele>47</ele>
        <time>2021-05-20T18:41:37Z</time>
      </trkpt>
      <trkpt lat="46.52808" lon="-0.76441">
        <ele>52</ele>
        <time>2021-05-20T18:42:07Z</time>
      </trkpt>
      <trkpt lat="46.52753" lon="-0.76511">
        <ele>55</ele>
        <time>2021-05-20T18:42:44Z</time>
      </trkpt>
      <trkpt lat="46.52729" lon="-0.76542">
        <ele>56</ele>
        <time>2021-05-20T18:43:00Z</time>
      </trkpt>
      <trkpt lat="46.52652" lon="-0.76603">
        <ele>60</ele>
        <time>2021-05-20T18:43:44Z</time>
      </trkpt>
      <trkpt lat="46.52603" lon="-0.76662">
        <ele>61</ele>
        <time>2021-05-20T18:44:16Z</time>
      </trkpt>
      <trkpt lat="46.5258" lon="-0.76697">
        <ele>61</ele>
        <time>2021-05-20T18:44:32Z</time>
      </trkpt>
      <trkpt lat="46.5256" lon="-0.76787">
        <ele>60</ele>
        <time>2021-05-20T18:45:05Z</time>
      </trkpt>
      <trkpt lat="46.52566" lon="-0.7685">
        <ele>59</ele>
        <time>2021-05-20T18:45:27Z</time>
      </trkpt>
      <trkpt lat="46.52591" lon="-0.76922">
        <ele>62</ele>
        <time>2021-05-20T18:45:55Z</time>
      </trkpt>
      <trkpt lat="46.52642" lon="-0.7696">
        <ele>62</ele>
        <time>2021-05-20T18:46:23Z</time>
      </trkpt>
      <trkpt lat="46.52694" lon="-0.76971">
        <ele>59</ele>
        <time>2021-05-20T18:46:50Z</time>
      </trkpt>
      <trkpt lat="46.52748" lon="-0.76942">
        <ele>55</ele>
        <time>2021-05-20T18:47:18Z</time>
      </trkpt>
      <trkpt lat="46.52805" lon="-0.76929">
        <ele>53</ele>
        <time>2021-05-20T18:47:47Z</time>
      </trkpt>
      <trkpt lat="46.52794" lon="-0.76996">
        <ele>60</ele>
        <time>2021-05-20T18:48:11Z</time>
      </trkpt>
      <trkpt lat="46.5278" lon="-0.77032">
        <ele>63</ele>
        <time>2021-05-20T18:48:25Z</time>
      </trkpt>
      <trkpt lat="46.52768" lon="-0.77065">
        <ele>67</ele>
        <time>2021-05-20T18:48:38Z</time>
      </trkpt>
      <trkpt lat="46.52773" lon="-0.77108">
        <ele>71</ele>
        <time>2021-05-20T18:48:53Z</time>
      </trkpt>
      <trkpt lat="46.52812" lon="-0.7711">
        <ele>70</ele>
        <time>2021-05-20T18:49:13Z</time>
      </trkpt>
      <trkpt lat="46.52858" lon="-0.77126">
        <ele>71</ele>
        <time>2021-05-20T18:49:36Z</time>
      </trkpt>
      <trkpt lat="46.52877" lon="-0.77144">
        <ele>71</ele>
        <time>2021-05-20T18:49:48Z</time>
      </trkpt>
      <trkpt lat="46.52877" lon="-0.77186">
        <ele>75</ele>
        <time>2021-05-20T18:50:02Z</time>
      </trkpt>
      <trkpt lat="46.52886" lon="-0.77255">
        <ele>79</ele>
        <time>2021-05-20T18:50:26Z</time>
      </trkpt>
      <trkpt lat="46.52891" lon="-0.77299">
        <ele>82</ele>
        <time>2021-05-20T18:50:42Z</time>
      </trkpt>
      <trkpt lat="46.52891" lon="-0.77367">
        <ele>85</ele>
        <time>2021-05-20T18:51:05Z</time>
      </trkpt>
      <trkpt lat="46.52887" lon="-0.77436">
        <ele>88</ele>
        <time>2021-05-20T18:51:29Z</time>
      </trkpt>
      <trkpt lat="46.52891" lon="-0.77478">
        <ele>89</ele>
        <time>2021-05-20T18:51:44Z</time>
      </trkpt>
      <trkpt lat="46.52905" lon="-0.77511">
        <ele>89</ele>
        <time>2021-05-20T18:51:57Z</time>
      </trkpt>
      <trkpt lat="46.52924" lon="-0.7754">
        <ele>89</ele>
        <time>2021-05-20T18:52:11Z</time>
      </trkpt>
      <trkpt lat="46.52903" lon="-0.77575">
        <ele>92</ele>
        <time>2021-05-20T18:52:27Z</time>
      </trkpt>
      <trkpt lat="46.52933" lon="-0.77722">
        <ele>95</ele>
        <time>2021-05-20T18:53:19Z</time>
      </trkpt>
      <trkpt lat="46.52957" lon="-0.7776">
        <ele>95</ele>
        <time>2021-05-20T18:53:37Z</time>
      </trkpt>
      <trkpt lat="46.52988" lon="-0.77712">
        <ele>95</ele>
        <time>2021-05-20T18:54:00Z</time>
      </trkpt>
      <trkpt lat="46.53033" lon="-0.77636">
        <ele>92</ele>
        <time>2021-05-20T18:54:34Z</time>
      </trkpt>
      <trkpt lat="46.53084" lon="-0.7757">
        <ele>89</ele>
        <time>2021-05-20T18:55:09Z</time>
      </trkpt>
      <trkpt lat="46.53134" lon="-0.775">
        <ele>80</ele>
        <time>2021-05-20T18:55:43Z</time>
      </trkpt>
      <trkpt lat="46.53191" lon="-0.77465">
        <ele>71</ele>
        <time>2021-05-20T18:56:14Z</time>
      </trkpt>
      <trkpt lat="46.53216" lon="-0.77441">
        <ele>66</ele>
        <time>2021-05-20T18:56:29Z</time>
      </trkpt>
      <trkpt lat="46.53245" lon="-0.77404">
        <ele>60</ele>
        <time>2021-05-20T18:56:49Z</time>
      </trkpt>
      <trkpt lat="46.53266" lon="-0.7738">
        <ele>55</ele>
        <time>2021-05-20T18:57:02Z</time>
      </trkpt>
      <trkpt lat="46.53278" lon="-0.77399">
        <ele>56</ele>
        <time>2021-05-20T18:57:11Z</time>
      </trkpt>
      <trkpt lat="46.53263" lon="-0.77455">
        <ele>60</ele>
        <time>2021-05-20T18:57:32Z</time>
      </trkpt>
      <trkpt lat="46.53256" lon="-0.77513">
        <ele>61</ele>
        <time>2021-05-20T18:57:52Z</time>
      </trkpt>
      <trkpt lat="46.53256" lon="-0.77545">
        <ele>61</ele>
        <time>2021-05-20T18:58:03Z</time>
      </trkpt>
      <trkpt lat="46.53282" lon="-0.7753">
        <ele>63</ele>
        <time>2021-05-20T18:58:17Z</time>
      </trkpt>
      <trkpt lat="46.53314" lon="-0.77472">
        <ele>60</ele>
        <time>2021-05-20T18:58:42Z</time>
      </trkpt>
      <trkpt lat="46.53345" lon="-0.77402">
        <ele>49</ele>
        <time>2021-05-20T18:59:11Z</time>
      </trkpt>
      <trkpt lat="46.53384" lon="-0.77479">
        <ele>54</ele>
        <time>2021-05-20T18:59:44Z</time>
      </trkpt>
      <trkpt lat="46.53459" lon="-0.77603">
        <ele>61</ele>
        <time>2021-05-20T19:00:41Z</time>
      </trkpt>
      <trkpt lat="46.53533" lon="-0.77692">
        <ele>57</ele>
        <time>2021-05-20T19:01:29Z</time>
      </trkpt>
      <trkpt lat="46.5367" lon="-0.77748">
        <ele>53</ele>
        <time>2021-05-20T19:02:40Z</time>
      </trkpt>
      <trkpt lat="46.53769" lon="-0.77756">
        <ele>54</ele>
        <time>2021-05-20T19:03:30Z</time>
      </trkpt>
      <trkpt lat="46.53833" lon="-0.77757">
        <ele>54</ele>
        <time>2021-05-20T19:04:02Z</time>
      </trkpt>
      <trkpt lat="46.5391" lon="-0.7774">
        <ele>53</ele>
        <time>2021-05-20T19:04:41Z</time>
      </trkpt>
      <trkpt lat="46.5403" lon="-0.77682">
        <ele>51</ele>
        <time>2021-05-20T19:05:44Z</time>
      </trkpt>
      <trkpt lat="46.54068" lon="-0.77656">
        <ele>49</ele>
        <time>2021-05-20T19:06:05Z</time>
      </trkpt>
      <trkpt lat="46.54144" lon="-0.7765">
        <ele>51</ele>
        <time>2021-05-20T19:06:43Z</time>
      </trkpt>
      <trkpt lat="46.54147" lon="-0.77731">
        <ele>63</ele>
        <time>2021-05-20T19:07:11Z</time>
      </trkpt>
      <trkpt lat="46.54127" lon="-0.77798">
        <ele>75</ele>
        <time>2021-05-20T19:07:36Z</time>
      </trkpt>
      <trkpt lat="46.54099" lon="-0.77817">
        <ele>79</ele>
        <time>2021-05-20T19:07:52Z</time>
      </trkpt>
      <trkpt lat="46.5408" lon="-0.77907">
        <ele>88</ele>
        <time>2021-05-20T19:08:24Z</time>
      </trkpt>
      <trkpt lat="46.54073" lon="-0.77986">
        <ele>94</ele>
        <time>2021-05-20T19:08:51Z</time>
      </trkpt>
      <trkpt lat="46.54076" lon="-0.78074">
        <ele>101</ele>
        <time>2021-05-20T19:09:22Z</time>
      </trkpt>
      <trkpt lat="46.5408" lon="-0.78126">
        <ele>102</ele>
        <time>2021-05-20T19:09:40Z</time>
      </trkpt>
      <trkpt lat="46.54132" lon="-0.78107">
        <ele>101</ele>
        <time>2021-05-20T19:10:07Z</time>
      </trkpt>
      <trkpt lat="46.5418" lon="-0.78094">
        <ele>96</ele>
        <time>2021-05-20T19:10:31Z</time>
      </trkpt>
      <trkpt lat="46.54201" lon="-0.78115">
        <ele>91</ele>
        <time>2021-05-20T19:10:44Z</time>
      </trkpt>
      <trkpt lat="46.54219" lon="-0.78134">
        <ele>87</ele>
        <time>2021-05-20T19:10:55Z</time>
      </trkpt>
      <trkpt lat="46.54249" lon="-0.78128">
        <ele>80</ele>
        <time>2021-05-20T19:11:10Z</time>
      </trkpt>
      <trkpt lat="46.54272" lon="-0.78093">
        <ele>70</ele>
        <time>2021-05-20T19:11:27Z</time>
      </trkpt>
      <trkpt lat="46.54284" lon="-0.78076">
        <ele>65</ele>
        <time>2021-05-20T19:11:35Z</time>
      </trkpt>
      <trkpt lat="46.5429" lon="-0.78099">
        <ele>63</ele>
        <time>2021-05-20T19:11:44Z</time>
      </trkpt>
      <trkpt lat="46.54334" lon="-0.78118">
        <ele>44</ele>
        <time>2021-05-20T19:12:07Z</time>
      </trkpt>
      <trkpt lat="46.54385" lon="-0.7812">
        <ele>50</ele>
        <time>2021-05-20T19:12:32Z</time>
      </trkpt>
      <trkpt lat="46.54413" lon="-0.78118">
        <ele>53</ele>
        <time>2021-05-20T19:12:46Z</time>
      </trkpt>
      <trkpt lat="46.54427" lon="-0.78168">
        <ele>53</ele>
        <time>2021-05-20T19:13:05Z</time>
      </trkpt>
      <trkpt lat="46.54448" lon="-0.782">
        <ele>54</ele>
        <time>2021-05-20T19:13:20Z</time>
      </trkpt>
      <trkpt lat="46.54475" lon="-0.78219">
        <ele>54</ele>
        <time>2021-05-20T19:13:35Z</time>
      </trkpt>
      <trkpt lat="46.5452" lon="-0.78212">
        <ele>54</ele>
        <time>2021-05-20T19:13:58Z</time>
      </trkpt>
      <trkpt lat="46.5461" lon="-0.78158">
        <ele>53</ele>
        <time>2021-05-20T19:14:46Z</time>
      </trkpt>
      <trkpt lat="46.54595" lon="-0.78109">
        <ele>60</ele>
        <time>2021-05-20T19:15:05Z</time>
      </trkpt>
      <trkpt lat="46.54571" lon="-0.78029">
        <ele>73</ele>
        <time>2021-05-20T19:15:35Z</time>
      </trkpt>
      <trkpt lat="46.54555" lon="-0.77978">
        <ele>77</ele>
        <time>2021-05-20T19:15:54Z</time>
      </trkpt>
      <trkpt lat="46.54559" lon="-0.77921">
        <ele>78</ele>
        <time>2021-05-20T19:16:14Z</time>
      </trkpt>
      <trkpt lat="46.54573" lon="-0.7786">
        <ele>80</ele>
        <time>2021-05-20T19:16:36Z</time>
      </trkpt>
      <trkpt lat="46.54593" lon="-0.77798">
        <ele>83</ele>
        <time>2021-05-20T19:17:00Z</time>
      </trkpt>
      <trkpt lat="46.54624" lon="-0.77747">
        <ele>85</ele>
        <time>2021-05-20T19:17:23Z</time>
      </trkpt>
      <trkpt lat="46.54637" lon="-0.77657">
        <ele>87</ele>
        <time>2021-05-20T19:17:55Z</time>
      </trkpt>
      <trkpt lat="46.54655" lon="-0.77597">
        <ele>89</ele>
        <time>2021-05-20T19:18:17Z</time>
      </trkpt>
      <trkpt lat="46.54654" lon="-0.77516">
        <ele>90</ele>
        <time>2021-05-20T19:18:45Z</time>
      </trkpt>
      <trkpt lat="46.54638" lon="-0.77438">
        <ele>91</ele>
        <time>2021-05-20T19:19:13Z</time>
      </trkpt>
      <trkpt lat="46.54631" lon="-0.77365">
        <ele>91</ele>
        <time>2021-05-20T19:19:38Z</time>
      </trkpt>
      <trkpt lat="46.54619" lon="-0.77309">
        <ele>90</ele>
        <time>2021-05-20T19:19:59Z</time>
      </trkpt>
      <trkpt lat="46.546" lon="-0.77248">
        <ele>88</ele>
        <time>2021-05-20T19:20:22Z</time>
      </trkpt>
      <trkpt lat="46.5453" lon="-0.77236">
        <ele>89</ele>
        <time>2021-05-20T19:20:57Z</time>
      </trkpt>
      <trkpt lat="46.54312" lon="-0.77249">
        <ele>96</ele>
        <time>2021-05-20T19:22:46Z</time>
      </trkpt>
      <trkpt lat="46.54235" lon="-0.77236">
        <ele>100</ele>
        <time>2021-05-20T19:23:25Z</time>
      </trkpt>
      <trkpt lat="46.5425" lon="-0.77335">
        <ele>86</ele>
        <time>2021-05-20T19:24:00Z</time>
      </trkpt>
      <trkpt lat="46.54315" lon="-0.774">
        <ele>66</ele>
        <time>2021-05-20T19:24:39Z</time>
      </trkpt>
      <trkpt lat="46.54359" lon="-0.77481">
        <ele>51</ele>
        <time>2021-05-20T19:25:15Z</time>
      </trkpt>
    </trkseg>
  </trk>
</gpx>